createdAt,value
2019-02-20T00:01:04.023Z,7.37
2019-02-20T00:04:07.015Z,7.44
2019-02-20T00:07:09.511Z,7.50
2019-02-20T00:10:11.611Z,7.51
2019-02-20T00:13:13.535Z,7.50
2019-02-20T00:16:15.419Z,7.51
2019-02-20T00:19:17.458Z,7.55
2019-02-20T00:22:19.419Z,7.58
2019-02-20T00:25:21.251Z,7.55
2019-02-20T00:28:23.196Z,7.48
2019-02-20T00:31:25.099Z,7.48
2019-02-20T00:34:27.101Z,7.51
2019-02-20T00:37:29.053Z,7.55
2019-02-20T00:40:31.000Z,7.58
2019-02-20T00:43:32.916Z,7.59
2019-02-20T00:46:36.638Z,7.65
2019-02-20T00:49:39.760Z,7.73
2019-02-20T00:53:00.294Z,7.73
2019-02-20T00:56:02.222Z,7.77
2019-02-20T00:59:04.104Z,7.73
2019-02-20T01:02:05.995Z,7.78
2019-02-20T01:05:08.067Z,7.80
2019-02-20T01:08:09.998Z,7.72
2019-02-20T01:11:12.002Z,7.64
2019-02-20T01:14:13.903Z,7.57
2019-02-20T01:17:15.967Z,7.46
2019-02-20T01:20:17.921Z,7.40
2019-02-20T01:23:19.862Z,7.34
2019-02-20T01:26:21.745Z,7.30
2019-02-20T01:29:23.671Z,7.24
2019-02-20T01:32:25.597Z,7.22
2019-02-20T01:35:27.544Z,7.33
2019-02-20T01:38:29.424Z,7.38
2019-02-20T01:41:31.330Z,7.48
2019-02-20T01:44:33.255Z,7.55
2019-02-20T01:47:35.119Z,7.63
2019-02-20T01:50:37.796Z,7.77
2019-02-20T01:53:39.707Z,7.81
2019-02-20T01:56:41.614Z,7.92
2019-02-20T01:59:43.557Z,7.89
2019-02-20T02:02:45.590Z,7.93
2019-02-20T02:05:47.844Z,7.93
2019-02-20T02:08:49.837Z,7.94
2019-02-20T02:11:51.801Z,8.00
2019-02-20T02:14:53.746Z,8.04
2019-02-20T02:17:55.655Z,8.08
2019-02-20T02:20:57.736Z,8.06
2019-02-20T02:23:59.791Z,8.12
2019-02-20T02:27:01.726Z,8.15
2019-02-20T02:30:07.252Z,8.08
2019-02-20T02:33:09.370Z,8.09
2019-02-20T02:36:11.304Z,8.01
2019-02-20T02:39:13.259Z,8.03
2019-02-20T02:42:15.147Z,8.01
2019-02-20T02:45:17.153Z,8.03
2019-02-20T02:48:19.089Z,8.06
2019-02-20T02:51:21.053Z,8.01
2019-02-20T02:54:22.954Z,7.95
2019-02-20T02:57:24.913Z,8.00
2019-02-20T03:00:26.923Z,8.00
2019-02-20T03:03:28.820Z,8.07
2019-02-20T03:06:30.784Z,8.05
2019-02-20T03:09:32.642Z,8.07
2019-02-20T03:12:35.186Z,8.11
2019-02-20T03:15:37.065Z,8.14
2019-02-20T03:18:39.025Z,8.13
2019-02-20T03:21:40.972Z,8.16
2019-02-20T03:24:42.911Z,8.16
2019-02-20T03:27:44.768Z,8.20
2019-02-20T03:30:46.750Z,8.22
2019-02-20T03:33:48.759Z,8.19
2019-02-20T03:36:50.671Z,8.18
2019-02-20T03:39:52.592Z,8.18
2019-02-20T03:42:54.533Z,8.19
2019-02-20T03:45:56.443Z,8.11
2019-02-20T03:48:58.413Z,8.13
2019-02-20T03:52:00.415Z,8.13
2019-02-20T03:55:03.089Z,8.17
2019-02-20T03:58:04.967Z,8.19
2019-02-20T04:01:06.894Z,8.19
2019-02-20T04:04:08.751Z,8.33
2019-02-20T04:07:11.759Z,8.20
2019-02-20T04:10:13.642Z,8.21
2019-02-20T04:13:15.782Z,8.15
2019-02-20T04:16:17.670Z,8.05
2019-02-20T04:19:19.629Z,8.06
2019-02-20T04:22:21.547Z,8.07
2019-02-20T04:25:23.398Z,8.08
2019-02-20T04:28:25.302Z,8.02
2019-02-20T04:31:27.191Z,7.98
2019-02-20T04:34:29.155Z,7.99
2019-02-20T04:37:31.009Z,8.06
2019-02-20T04:40:32.952Z,8.01
2019-02-20T04:43:34.871Z,8.03
2019-02-20T04:46:36.824Z,8.12
2019-02-20T04:49:38.858Z,8.11
2019-02-20T04:52:40.775Z,8.09
2019-02-20T04:55:42.755Z,8.17
2019-02-20T04:58:46.338Z,8.23
2019-02-20T05:01:48.361Z,8.27
2019-02-20T05:04:50.278Z,8.26
2019-02-20T05:07:52.248Z,8.20
2019-02-20T05:10:54.182Z,8.15
2019-02-20T05:13:56.276Z,8.10
2019-02-20T05:16:58.186Z,8.10
2019-02-20T05:20:00.309Z,8.13
2019-02-20T05:23:02.409Z,8.16
2019-02-20T05:26:04.359Z,8.16
2019-02-20T05:29:06.303Z,8.13
2019-02-20T05:32:08.279Z,8.09
2019-02-20T05:35:10.231Z,8.09
2019-02-20T05:38:12.140Z,8.08
2019-02-20T05:41:14.134Z,8.02
2019-02-20T05:44:17.500Z,8.04
2019-02-20T05:47:19.411Z,8.05
2019-02-20T05:50:21.335Z,7.95
2019-02-20T05:53:23.265Z,7.99
2019-02-20T05:56:25.167Z,7.96
2019-02-20T05:59:27.163Z,7.99
2019-02-20T06:02:29.829Z,8.00
2019-02-20T06:05:32.373Z,8.02
2019-02-20T06:08:34.245Z,8.02
2019-02-20T06:11:36.295Z,8.08
2019-02-20T06:14:38.377Z,8.12
2019-02-20T06:17:40.431Z,8.17
2019-02-20T06:20:43.701Z,8.18
2019-02-20T06:23:45.721Z,8.14
2019-02-20T06:26:47.710Z,8.15
2019-02-20T06:29:50.121Z,8.24
2019-02-20T06:32:52.035Z,8.26
2019-02-20T06:35:54.030Z,8.25
2019-02-20T06:38:55.953Z,8.30
2019-02-20T06:41:57.896Z,8.32
2019-02-20T06:44:59.839Z,8.39
2019-02-20T06:48:01.761Z,8.41
2019-02-20T06:51:03.683Z,8.48
2019-02-20T06:54:05.654Z,8.49
2019-02-20T06:57:07.647Z,8.47
2019-02-20T07:00:12.229Z,8.45
2019-02-20T07:03:14.104Z,8.47
2019-02-20T07:06:34.919Z,8.49
2019-02-20T07:09:52.697Z,8.59
2019-02-20T07:12:58.250Z,8.66
2019-02-20T07:16:33.178Z,8.66
2019-02-20T07:19:44.439Z,8.71
2019-02-20T07:23:21.761Z,8.72
2019-02-20T07:26:36.341Z,8.75
2019-02-20T07:29:47.763Z,8.80
2019-02-20T07:32:49.686Z,8.81
2019-02-20T07:35:51.602Z,8.83
2019-02-20T07:38:56.695Z,8.87
2019-02-20T07:41:58.673Z,8.84
2019-02-20T07:45:00.651Z,8.92
2019-02-20T07:48:04.659Z,8.98
2019-02-20T07:51:06.699Z,9.00
2019-02-20T07:54:09.171Z,9.06
2019-02-20T07:57:11.150Z,9.13
2019-02-20T08:00:14.491Z,9.11
2019-02-20T08:03:16.491Z,9.18
2019-02-20T08:06:18.470Z,9.21
2019-02-20T08:09:21.683Z,9.29
2019-02-20T08:12:23.574Z,9.34
2019-02-20T08:15:25.525Z,9.46
2019-02-20T08:18:27.610Z,9.61
2019-02-20T08:21:29.642Z,9.62
2019-02-20T08:24:31.621Z,9.76
2019-02-20T08:27:33.642Z,9.85
2019-02-20T08:30:35.527Z,10.03
2019-02-20T08:33:37.424Z,10.07
2019-02-20T08:36:39.379Z,10.16
2019-02-20T08:39:41.394Z,10.20
2019-02-20T08:42:43.359Z,10.27
2019-02-20T08:45:45.271Z,10.26
2019-02-20T08:48:47.192Z,10.26
2019-02-20T08:51:49.150Z,10.33
2019-02-20T08:54:51.045Z,10.34
2019-02-20T08:57:53.028Z,10.46
2019-02-20T09:00:54.976Z,10.47
2019-02-20T09:03:57.459Z,10.48
2019-02-20T09:06:59.360Z,10.60
2019-02-20T09:10:02.000Z,10.67
2019-02-20T09:13:04.090Z,10.62
2019-02-20T09:16:06.071Z,10.65
2019-02-20T09:19:08.091Z,10.69
2019-02-20T09:22:10.116Z,10.72
2019-02-20T09:25:19.584Z,10.69
2019-02-20T09:28:15.973Z,10.68
2019-02-20T09:31:17.919Z,10.64
2019-02-20T09:34:19.985Z,10.66
2019-02-20T09:37:22.024Z,10.63
2019-02-20T09:40:24.022Z,10.50
2019-02-20T09:43:25.936Z,10.52
2019-02-20T09:46:27.861Z,10.53
2019-02-20T09:49:29.782Z,10.58
2019-02-20T09:52:31.627Z,10.58
2019-02-20T09:55:33.609Z,10.55
2019-02-20T09:58:35.644Z,10.56
2019-02-20T10:01:37.583Z,10.53
2019-02-20T10:04:39.481Z,10.53
2019-02-20T10:07:41.439Z,10.62
2019-02-20T10:10:43.359Z,10.53
2019-02-20T10:13:45.358Z,10.57
2019-02-20T10:16:47.319Z,10.57
2019-02-20T10:19:49.320Z,10.62
2019-02-20T10:22:51.227Z,10.64
2019-02-20T10:26:00.589Z,10.68
2019-02-20T10:28:57.222Z,10.75
2019-02-20T10:31:59.211Z,10.76
2019-02-20T10:35:01.162Z,10.80
2019-02-20T10:38:03.153Z,10.86
2019-02-20T10:41:05.106Z,11.01
2019-02-20T10:44:07.102Z,11.17
2019-02-20T10:47:10.286Z,11.28
2019-02-20T10:50:12.970Z,11.19
2019-02-20T10:53:14.907Z,11.09
2019-02-20T10:56:16.879Z,11.01
2019-02-20T10:59:19.036Z,11.02
2019-02-20T11:02:20.906Z,10.99
2019-02-20T11:05:22.837Z,11.16
2019-02-20T11:08:25.255Z,11.15
2019-02-20T11:11:28.129Z,11.20
2019-02-20T11:14:30.079Z,11.23
2019-02-20T11:17:32.007Z,11.29
2019-02-20T11:20:34.100Z,11.30
2019-02-20T11:23:36.054Z,11.27
2019-02-20T11:26:50.268Z,11.45
2019-02-20T11:29:41.946Z,11.44
2019-02-20T11:32:43.881Z,11.47
2019-02-20T11:35:45.952Z,11.39
2019-02-20T11:38:47.905Z,11.34
2019-02-20T11:41:49.836Z,11.33
2019-02-20T11:44:51.785Z,11.42
2019-02-20T11:47:53.740Z,11.52
2019-02-20T11:50:55.823Z,11.53
2019-02-20T11:53:57.764Z,11.52
2019-02-20T11:56:59.774Z,11.56
2019-02-20T12:00:01.907Z,11.60
2019-02-20T12:03:05.057Z,11.48
2019-02-20T12:06:07.382Z,11.46
2019-02-20T12:09:09.681Z,11.47
2019-02-20T12:12:12.204Z,11.56
2019-02-20T12:15:14.120Z,11.50
2019-02-20T12:18:17.544Z,11.58
2019-02-20T12:21:20.875Z,11.67
2019-02-20T12:24:22.811Z,11.64
2019-02-20T12:27:24.837Z,11.80
2019-02-20T12:30:26.911Z,11.76
2019-02-20T12:33:29.087Z,11.67
2019-02-20T12:36:30.991Z,11.73
2019-02-20T12:39:32.953Z,11.83
2019-02-20T12:42:34.917Z,11.90
2019-02-20T12:45:36.898Z,11.89
2019-02-20T12:48:39.098Z,11.93
2019-02-20T12:51:41.378Z,11.90
2019-02-20T12:54:43.290Z,11.91
2019-02-20T12:57:45.191Z,12.07
2019-02-20T13:00:47.237Z,12.20
2019-02-20T13:03:49.122Z,12.21
2019-02-20T13:06:59.231Z,12.12
2019-02-20T13:09:55.297Z,12.05
2019-02-20T13:12:57.226Z,12.08
2019-02-20T13:15:59.136Z,12.17
2019-02-20T13:19:01.075Z,12.40
2019-02-20T13:22:03.087Z,12.40
2019-02-20T13:25:06.981Z,12.26
2019-02-20T13:28:08.952Z,12.24
2019-02-20T13:31:11.078Z,12.20
2019-02-20T13:34:13.116Z,12.14
2019-02-20T13:37:15.097Z,12.05
2019-02-20T13:40:17.220Z,12.08
2019-02-20T13:43:19.106Z,11.96
2019-02-20T13:46:21.600Z,12.02
2019-02-20T13:49:23.619Z,11.92
2019-02-20T13:52:25.711Z,11.99
2019-02-20T13:55:34.189Z,12.01
2019-02-20T13:58:31.736Z,11.94
2019-02-20T14:01:34.017Z,11.88
2019-02-20T14:04:35.981Z,11.87
2019-02-20T14:07:39.508Z,11.93
2019-02-20T14:10:42.969Z,11.93
2019-02-20T14:13:44.942Z,11.94
2019-02-20T14:16:46.918Z,11.97
2019-02-20T14:19:49.242Z,12.10
2019-02-20T14:22:51.285Z,12.04
2019-02-20T14:25:54.470Z,11.86
2019-02-20T14:28:56.673Z,11.82
2019-02-20T14:31:58.736Z,11.81
2019-02-20T14:35:00.790Z,11.88
2019-02-20T14:38:02.705Z,11.88
2019-02-20T14:41:04.745Z,11.83
2019-02-20T14:44:06.975Z,11.75
2019-02-20T14:47:09.104Z,11.80
2019-02-20T14:50:13.450Z,11.80
2019-02-20T14:53:15.413Z,11.80
2019-02-20T14:56:17.559Z,11.80
2019-02-20T14:59:19.603Z,11.77
2019-02-20T15:02:23.000Z,11.80
2019-02-20T15:05:25.193Z,11.84
2019-02-20T15:08:27.303Z,11.81
2019-02-20T15:11:29.369Z,11.77
2019-02-20T15:14:31.231Z,11.76
2019-02-20T15:17:33.181Z,11.66
2019-02-20T15:20:35.669Z,11.62
2019-02-20T15:23:38.230Z,11.55
2019-02-20T15:26:40.158Z,11.47
2019-02-20T15:29:42.098Z,11.36
2019-02-20T15:32:44.069Z,11.28
2019-02-20T15:35:47.509Z,11.31
2019-02-20T15:38:49.379Z,11.35
2019-02-20T15:41:51.339Z,11.34
2019-02-20T15:44:53.348Z,11.39
2019-02-20T15:47:55.509Z,11.39
2019-02-20T15:50:57.480Z,11.39
2019-02-20T15:53:59.512Z,11.39
2019-02-20T15:57:01.443Z,11.26
2019-02-20T16:00:10.184Z,11.26
2019-02-20T16:03:12.268Z,11.19
2019-02-20T16:06:14.183Z,11.05
2019-02-20T16:09:16.441Z,10.97
2019-02-20T16:12:18.584Z,10.93
2019-02-20T16:15:20.785Z,10.84
2019-02-20T16:18:24.292Z,10.76
2019-02-20T16:21:26.209Z,10.66
2019-02-20T16:24:28.306Z,10.56
2019-02-20T16:27:31.372Z,10.46
2019-02-20T16:30:33.625Z,10.30
2019-02-20T16:33:35.654Z,10.19
2019-02-20T16:36:37.604Z,10.19
2019-02-20T16:39:40.857Z,10.21
2019-02-20T16:42:43.143Z,10.19
2019-02-20T16:45:47.640Z,10.12
2019-02-20T16:48:49.918Z,10.21
2019-02-20T16:51:52.544Z,10.37
2019-02-20T16:54:55.401Z,10.40
2019-02-20T16:57:57.318Z,10.45
2019-02-20T17:00:59.334Z,10.46
2019-02-20T17:09:31.788Z,16.97
2019-02-20T17:12:35.613Z,14.99
2019-02-20T17:15:37.597Z,13.19
2019-02-20T17:18:39.605Z,11.87
2019-02-20T17:21:41.680Z,10.94
2019-02-20T17:24:45.640Z,10.31
2019-02-20T17:27:47.655Z,9.84
2019-02-20T17:30:49.529Z,9.49
2019-02-20T17:33:51.423Z,9.26
2019-02-20T17:36:54.420Z,9.03
2019-02-20T17:39:56.346Z,8.79
2019-02-20T17:42:58.296Z,8.64
2019-02-20T17:46:01.432Z,8.50
2019-02-20T17:49:05.948Z,8.36
2019-02-20T17:52:11.069Z,8.21
2019-02-20T17:55:16.252Z,8.16
2019-02-20T17:58:19.452Z,8.07
2019-02-20T18:01:23.505Z,8.04
2019-02-20T18:04:27.257Z,7.98
2019-02-20T18:07:32.186Z,7.93
2019-02-20T18:10:34.095Z,7.87
2019-02-20T18:13:36.033Z,7.80
2019-02-20T18:16:39.951Z,7.74
2019-02-20T18:19:44.434Z,7.66
2019-02-20T18:22:46.647Z,7.60
2019-02-20T18:25:49.078Z,7.55
2019-02-20T18:28:50.959Z,7.55
2019-02-20T18:31:55.646Z,7.56
2019-02-20T18:34:57.558Z,7.57
2019-02-20T18:38:00.292Z,7.61
2019-02-20T18:41:05.355Z,7.62
2019-02-20T18:44:09.049Z,7.65
2019-02-20T18:47:13.119Z,7.65
2019-02-20T18:50:16.207Z,7.58
2019-02-20T18:53:20.156Z,7.58
2019-02-20T18:56:22.061Z,7.59
2019-02-20T18:59:24.290Z,7.62
2019-02-20T19:02:26.318Z,7.63
2019-02-20T19:05:28.215Z,7.62
2019-02-20T19:08:48.087Z,7.63
2019-02-20T19:11:56.739Z,7.64
2019-02-20T19:15:10.270Z,7.63
2019-02-20T19:18:15.951Z,7.57
2019-02-20T19:21:21.514Z,7.57
2019-02-20T19:24:41.399Z,7.48
2019-02-20T19:27:51.800Z,7.44
2019-02-20T19:31:09.273Z,7.43
2019-02-20T19:34:28.747Z,7.42
2019-02-20T19:37:34.502Z,7.41
2019-02-20T19:40:40.141Z,7.40
2019-02-20T19:44:00.775Z,7.35
2019-02-20T19:47:38.184Z,7.33
2019-02-20T19:50:56.590Z,7.34
2019-02-20T19:54:15.017Z,7.32
2019-02-20T19:57:29.688Z,7.31
2019-02-20T20:00:38.702Z,7.33
2019-02-20T20:03:51.891Z,7.33
2019-02-20T20:07:16.974Z,7.41
2019-02-20T20:10:29.900Z,7.38
2019-02-20T20:13:46.220Z,7.37
2019-02-20T20:17:10.094Z,7.29
2019-02-20T20:20:30.875Z,7.25
2019-02-20T20:24:12.004Z,7.18
2019-02-20T20:27:45.239Z,7.14
2019-02-20T20:30:51.077Z,7.11
2019-02-20T20:33:59.305Z,7.10
2019-02-20T20:37:21.037Z,7.14
2019-02-20T20:40:53.097Z,7.13
2019-02-20T20:44:07.430Z,7.07
2019-02-20T20:47:18.864Z,7.02
2019-02-20T20:50:50.342Z,7.02
2019-02-20T20:54:28.427Z,7.02
2019-02-20T20:57:43.521Z,7.00
2019-02-20T21:01:09.112Z,7.00
2019-02-20T21:04:44.986Z,7.05
2019-02-20T21:07:52.369Z,7.08
2019-02-20T21:11:17.018Z,7.06
2019-02-20T21:14:33.579Z,7.06
2019-02-20T21:17:44.837Z,7.11
2019-02-20T21:21:13.161Z,7.14
2019-02-20T21:24:28.510Z,7.16
2019-02-20T21:27:37.696Z,7.12
2019-02-20T21:30:45.746Z,7.10
2019-02-20T21:34:10.462Z,7.15
2019-02-20T21:37:21.784Z,7.16
2019-02-20T21:40:45.525Z,7.16
2019-02-20T21:44:07.599Z,7.20
2019-02-20T21:47:43.732Z,7.17
2019-02-20T21:51:04.420Z,7.19
2019-02-20T21:54:12.819Z,7.16
2019-02-20T21:57:24.450Z,7.17
2019-02-20T22:00:33.102Z,7.20
2019-02-20T22:03:41.635Z,7.17
2019-02-20T22:06:56.108Z,7.19
2019-02-20T22:10:34.839Z,7.18
2019-02-20T22:14:06.488Z,7.19
2019-02-20T22:17:27.057Z,7.17
2019-02-20T22:21:04.941Z,7.18
2019-02-20T22:24:10.500Z,7.22
2019-02-20T22:27:34.296Z,7.23
2019-02-20T22:31:08.524Z,7.27
2019-02-20T22:34:29.214Z,7.24
2019-02-20T22:37:40.273Z,7.22
2019-02-20T22:40:49.087Z,7.20
2019-02-20T22:44:06.789Z,7.24
2019-02-20T22:47:17.922Z,7.28
2019-02-20T22:50:32.851Z,7.27
2019-02-20T22:53:53.523Z,7.34
2019-02-20T22:57:14.021Z,7.29
2019-02-20T23:00:48.648Z,7.31
2019-02-20T23:04:14.351Z,7.28
2019-02-20T23:07:23.056Z,7.26
2019-02-20T23:10:37.666Z,7.24
2019-02-20T23:13:57.794Z,7.31
2019-02-20T23:16:59.674Z,7.31
2019-02-20T23:20:01.551Z,7.33
2019-02-20T23:23:03.827Z,7.36
2019-02-20T23:26:05.777Z,7.37
2019-02-20T23:29:07.675Z,7.38
2019-02-20T23:32:09.558Z,7.39
2019-02-20T23:35:11.632Z,7.35
2019-02-20T23:38:13.581Z,7.33
2019-02-20T23:41:15.588Z,7.31
2019-02-20T23:44:17.519Z,7.25
2019-02-20T23:47:19.580Z,7.25
2019-02-20T23:50:21.510Z,7.26
2019-02-20T23:53:24.718Z,7.23
2019-02-20T23:56:26.797Z,7.14
2019-02-20T23:59:28.739Z,7.12
